Time;durP1;ratioP1;P1;durP2;ratioP2;P2;SDS_P1;SDS_P2;PMS_P1;PMS_P2;Temp;Humidity;BMP_temperature;BMP_pressure;BME280_temperature;BME280_humidity;BME280_pressure;Samples;Min_cycle;Max_cycle;Signal;HPM_P1;HPM_P2
2021/10/23 10:33:54;;;;;;;11.18;5.88;;;9.80;99.90;;;;;;5070698;28;20558;-82
2021/10/23 10:36:33;;;;;;;7.18;3.78;;;9.80;99.90;;;;;;5070699;28;20692;-82
2021/10/23 10:39:25;;;;;;;15.20;5.40;;;9.90;99.90;;;;;;5070661;28;20168;-82
2021/10/23 10:45:34;;;;;;;4.20;3.40;;;10.60;99.90;;;;;;5070767;28;20644;-82
2021/10/23 10:48:20;;;;;;;5.25;3.20;;;9.90;99.90;;;;;;5070441;28;20656;-82
2021/10/23 10:50:46;;;;;;;6.18;2.55;;;10.00;99.90;;;;;;5070450;28;20251;-82
2021/10/23 10:53:23;;;;;;;4.88;3.55;;;10.00;99.90;;;;;;5068917;28;20291;-82
2021/10/23 10:55:52;;;;;;;4.28;2.60;;;10.10;99.90;;;;;;5070377;28;20243;-82
2021/10/23 10:58:18;;;;;;;6.68;2.80;;;10.10;99.90;;;;;;5070243;28;20195;-82
2021/10/23 11:00:49;;;;;;;7.22;2.97;;;10.00;99.90;;;;;;5070181;28;20202;-83
2021/10/23 11:03:37;;;;;;;4.50;3.58;;;10.20;99.90;;;;;;5070124;28;20196;-82
2021/10/23 11:06:27;;;;;;;5.50;3.85;;;10.00;99.90;;;;;;5069990;28;20165;-82
2021/10/23 11:09:16;;;;;;;10.20;3.60;;;10.10;99.90;;;;;;5070296;28;20193;-83
2021/10/23 11:11:45;;;;;;;13.32;3.58;;;10.10;99.90;;;;;;5046762;28;20678;-83
2021/10/23 11:14:34;;;;;;;8.30;3.50;;;10.10;99.90;;;;;;5049963;28;20197;-82
2021/10/23 11:17:14;;;;;;;4.07;3.60;;;10.40;99.90;;;;;;5050009;28;20311;-82
2021/10/23 11:19:52;;;;;;;5.07;3.70;;;10.30;99.90;;;;;;5050094;28;20659;-83
2021/10/23 11:22:23;;;;;;;5.55;2.85;;;10.30;99.90;;;;;;5049935;28;20173;-83
2021/10/23 11:24:57;;;;;;;7.50;3.20;;;10.40;99.90;;;;;;5048612;28;20177;-83
2021/10/23 11:27:37;;;;;;;7.93;3.22;;;10.40;99.90;;;;;;5049747;28;20168;-83
2021/10/23 11:30:23;;;;;;;5.38;3.58;;;10.40;99.90;;;;;;5048465;28;20247;-83
2021/10/23 11:32:54;;;;;;;6.43;3.63;;;10.50;99.90;;;;;;5048124;28;20221;-82
2021/10/23 11:35:42;;;;;;;7.05;4.20;;;10.50;99.90;;;;;;5049849;28;20619;-82
2021/10/23 11:38:10;;;;;;;5.97;3.92;;;10.60;99.90;;;;;;5048259;28;20724;-81
2021/10/23 11:40:39;;;;;;;8.52;4.30;;;10.60;99.90;;;;;;5049562;28;20566;-82
2021/10/23 11:43:05;;;;;;;9.15;4.63;;;10.70;99.90;;;;;;5046838;28;20177;-82
2021/10/23 11:45:36;;;;;;;11.02;4.20;;;10.80;99.90;;;;;;5036098;28;20169;-82
2021/10/23 11:48:07;;;;;;;8.38;4.20;;;10.80;99.90;;;;;;5036125;28;20170;-83
2021/10/23 11:50:35;;;;;;;5.75;5.22;;;10.90;99.90;;;;;;5036128;28;20606;-82
2021/10/23 11:53:17;;;;;;;6.32;4.13;;;10.90;99.90;;;;;;5035966;28;20197;-82
2021/10/23 11:55:45;;;;;;;4.63;3.88;;;10.90;99.90;;;;;;5034627;28;20174;-83
2021/10/23 11:58:24;;;;;;;5.07;3.50;;;10.90;99.90;;;;;;5035956;28;20185;-82
2021/10/23 12:00:59;;;;;;;6.43;3.17;;;11.00;99.90;;;;;;5035967;28;20165;-82
2021/10/23 12:03:44;;;;;;;12.48;3.05;;;11.00;99.90;;;;;;5035914;28;20169;-82
2021/10/23 12:06:23;;;;;;;15.88;4.03;;;11.00;99.90;;;;;;5035767;28;20252;-82
2021/10/23 12:08:53;;;;;;;10.15;3.72;;;11.00;99.90;;;;;;5035834;28;20165;-82
2021/10/23 12:11:23;;;;;;;6.63;2.90;;;10.90;99.90;;;;;;5035563;28;20733;-82
2021/10/23 12:14:03;;;;;;;4.45;3.22;;;10.90;99.90;;;;;;5034349;28;20169;-82
2021/10/23 12:16:39;;;;;;;6.38;3.33;;;10.90;99.90;;;;;;5035498;28;20200;-82
2021/10/23 12:19:36;;;;;;;6.13;3.30;;;11.00;99.90;;;;;;5035786;28;20170;-82
2021/10/23 12:22:04;;;;;;;7.38;3.75;;;10.90;99.90;;;;;;5031926;28;20209;-82
2021/10/23 12:24:39;;;;;;;5.47;2.90;;;10.80;99.90;;;;;;5035451;28;20252;-82
2021/10/23 12:27:27;;;;;;;8.48;3.58;;;10.90;99.90;;;;;;5035322;28;20189;-82
2021/10/23 12:30:02;;;;;;;6.70;3.38;;;11.00;99.90;;;;;;5033971;28;20539;-82
2021/10/23 12:32:27;;;;;;;3.50;3.20;;;10.90;99.90;;;;;;5035074;28;20228;-82
2021/10/23 12:35:01;;;;;;;2.55;1.77;;;11.00;99.90;;;;;;5033993;28;20567;-82
2021/10/23 12:37:27;;;;;;;2.80;1.77;;;11.00;99.90;;;;;;5035217;28;20689;-82
2021/10/23 12:40:07;;;;;;;2.65;2.22;;;11.00;99.90;;;;;;5033884;28;20174;-82
2021/10/23 12:42:35;;;;;;;5.22;1.95;;;10.90;99.90;;;;;;5034932;28;20173;-82
2021/10/23 12:45:03;;;;;;;3.28;1.80;;;10.80;99.90;;;;;;5035022;28;20189;-82
2021/10/23 12:47:29;;;;;;;1.63;1.63;;;10.70;99.90;;;;;;5034975;28;20563;-82
2021/10/23 12:49:54;;;;;;;2.30;2.20;;;10.60;99.90;;;;;;5034883;28;20169;-82
2021/10/23 12:52:20;;;;;;;2.08;1.90;;;10.60;99.90;;;;;;5034861;28;20198;-82
2021/10/23 12:54:46;;;;;;;3.30;1.30;;;10.70;99.90;;;;;;5034368;28;20624;-82
2021/10/23 12:57:11;;;;;;;2.55;1.70;;;10.60;99.90;;;;;;5034577;28;20177;-82
2021/10/23 12:59:37;;;;;;;1.77;1.30;;;10.60;99.90;;;;;;5034791;28;20249;-82
2021/10/23 13:02:02;;;;;;;5.00;1.48;;;10.70;99.90;;;;;;5034760;28;20220;-82
2021/10/23 13:04:28;;;;;;;1.90;1.80;;;10.60;99.90;;;;;;5034616;28;20177;-82
2021/10/23 13:06:54;;;;;;;2.05;1.35;;;10.50;99.90;;;;;;5034704;28;20174;-82
2021/10/23 13:09:20;;;;;;;3.78;1.60;;;10.60;99.90;;;;;;5034491;28;20251;-82
2021/10/23 13:11:48;;;;;;;3.10;1.50;;;10.70;99.90;;;;;;5034528;28;20220;-82
2021/10/23 13:14:14;;;;;;;4.05;1.70;;;10.60;99.90;;;;;;5034492;28;20248;-82
2021/10/23 13:16:39;;;;;;;2.58;1.45;;;10.50;99.90;;;;;;5034514;28;20626;-82
2021/10/23 13:19:05;;;;;;;3.17;1.90;;;10.50;99.90;;;;;;5034324;28;20169;-82
2021/10/23 13:21:30;;;;;;;2.97;1.98;;;10.40;99.90;;;;;;5034312;28;20673;-82
2021/10/23 13:23:56;;;;;;;1.92;1.90;;;10.40;99.90;;;;;;5033044;28;20179;-82
2021/10/23 13:26:22;;;;;;;1.70;1.60;;;10.30;99.90;;;;;;5034294;28;20201;-82
2021/10/23 13:28:47;;;;;;;2.50;1.52;;;10.30;99.90;;;;;;5034220;28;20212;-82
2021/10/23 13:31:13;;;;;;;4.70;1.60;;;10.30;99.90;;;;;;5034030;28;20245;-81
2021/10/23 13:33:39;;;;;;;1.85;1.75;;;10.20;99.90;;;;;;5034031;28;20198;-82
2021/10/23 13:36:08;;;;;;;3.13;1.98;;;10.20;99.90;;;;;;5034120;28;20161;-81
2021/10/23 13:38:34;;;;;;;5.57;1.95;;;10.10;99.90;;;;;;5034139;28;20170;-82
2021/10/23 13:41:00;;;;;;;2.78;1.83;;;10.00;99.90;;;;;;5034091;28;20256;-82
2021/10/23 13:43:25;;;;;;;1.80;1.70;;;10.00;99.90;;;;;;5034012;28;20691;-82
2021/10/23 13:45:51;;;;;;;1.85;1.75;;;10.00;99.90;;;;;;5033987;28;20202;-82
2021/10/23 13:48:17;;;;;;;6.13;2.20;;;10.00;99.90;;;;;;5033815;28;20523;-82
2021/10/23 13:50:43;;;;;;;1.98;1.88;;;10.00;99.90;;;;;;5032819;28;20189;-82
2021/10/23 13:53:08;;;;;;;2.85;2.15;;;10.30;99.90;;;;;;5033731;28;20209;-82
2021/10/23 13:55:34;;;;;;;1.63;1.52;;;10.60;99.90;;;;;;5033824;28;20166;-82
2021/10/23 13:57:59;;;;;;;2.42;1.50;;;10.90;99.90;;;;;;5032525;28;20196;-82
2021/10/23 14:00:25;;;;;;;1.85;1.50;;;11.30;99.90;;;;;;5032421;28;20227;-82
2021/10/23 14:02:51;;;;;;;1.58;1.48;;;11.50;99.90;;;;;;5033701;28;20180;-82
2021/10/23 14:05:17;;;;;;;1.45;1.40;;;11.80;99.90;;;;;;5033706;28;20275;-82
2021/10/23 14:07:43;;;;;;;3.53;1.63;;;11.90;99.90;;;;;;5033382;28;20646;-82
2021/10/23 14:10:10;;;;;;;3.97;2.35;;;11.90;99.90;;;;;;5032171;28;20201;-82
2021/10/23 14:12:35;;;;;;;3.15;1.90;;;11.80;99.90;;;;;;5033524;28;20197;-82
2021/10/23 14:15:01;;;;;;;2.65;1.83;;;11.50;99.90;;;;;;5033537;28;20216;-82
2021/10/23 14:17:27;;;;;;;3.78;1.92;;;11.30;99.90;;;;;;5033492;28;20170;-82
2021/10/23 14:19:53;;;;;;;1.67;1.50;;;11.00;99.90;;;;;;5033437;28;20213;-82
2021/10/23 14:22:20;;;;;;;2.08;1.30;;;10.80;99.90;;;;;;5033528;28;20219;-82
2021/10/23 14:24:47;;;;;;;2.40;1.48;;;10.70;99.90;;;;;;5032150;28;20212;-82
2021/10/23 14:27:25;;;;;;;1.67;1.58;;;10.50;99.90;;;;;;5033431;28;20170;-82
2021/10/23 14:29:51;;;;;;;8.77;2.25;;;10.40;99.90;;;;;;5033306;28;20177;-82
2021/10/23 14:32:17;;;;;;;3.15;1.60;;;10.30;99.90;;;;;;5033037;28;20229;-82
2021/10/23 14:34:42;;;;;;;3.33;2.40;;;10.20;99.90;;;;;;5033255;28;20248;-82
2021/10/23 14:37:08;;;;;;;5.10;2.40;;;10.10;99.90;;;;;;5033298;28;20252;-82
2021/10/23 14:39:34;;;;;;;1.90;1.90;;;10.10;99.90;;;;;;5033187;28;20181;-82
2021/10/23 14:41:59;;;;;;;2.53;2.00;;;10.00;99.90;;;;;;5033250;28;20170;-82
2021/10/23 14:44:25;;;;;;;3.70;1.60;;;9.90;99.90;;;;;;5031880;28;20192;-82
2021/10/23 14:46:52;;;;;;;2.88;1.77;;;9.90;99.90;;;;;;5033193;28;20170;-82
2021/10/23 14:49:18;;;;;;;1.67;1.58;;;9.90;99.90;;;;;;5033134;28;20181;-82
2021/10/23 14:51:44;;;;;;;3.85;1.60;;;9.90;99.90;;;;;;5033024;28;20197;-82
2021/10/23 14:55:49;;;;;;;6.57;2.55;;;10.00;99.90;;;;;;5131835;27;20982;-77
2021/10/23 14:58:15;;;;;;;4.00;2.10;;;9.60;99.90;;;;;;5131816;28;20178;-77
2021/10/23 15:00:41;;;;;;;9.48;2.35;;;9.60;99.90;;;;;;5131678;28;20261;-77
2021/10/23 15:03:06;;;;;;;4.55;2.20;;;9.50;99.90;;;;;;5132645;28;20245;-90
2021/10/23 15:05:32;;;;;;;2.75;2.55;;;9.60;99.90;;;;;;5131626;28;20502;-77
2021/10/23 15:27:55;;;;;;;5.93;2.60;;;8.70;99.90;;;;;;5131769;27;20277;-76
2021/10/23 15:30:21;;;;;;;8.02;2.50;;;8.70;99.90;;;;;;5113236;28;20583;-76
2021/10/23 15:32:53;;;;;;;2.42;2.22;;;8.60;99.90;;;;;;5131669;28;20162;-76
2021/10/23 15:35:29;;;;;;;3.38;2.72;;;8.60;99.90;;;;;;5131538;28;20163;-76
2021/10/23 15:37:54;;;;;;;6.45;3.20;;;8.50;99.90;;;;;;5131588;28;20245;-76
2021/10/23 15:40:33;;;;;;;3.78;2.70;;;8.40;99.90;;;;;;5131527;28;20595;-76
2021/10/23 15:43:00;;;;;;;4.50;2.78;;;8.30;99.90;;;;;;5113339;28;20200;-77
